Saint Pierre, St. Pierre

12:13 AM PMST on December 19, 2014 (GMT -0300)
Saint Pierre | Change Station
CLOSE
Current Station
Airport
Location: Saint Pierre,
Elevation: 26 ft
Nearby Weather Stations

Elev 26 ft 46.76 °N, 56.17 °W | Updated 19 minutes ago

Light Rain
Light Rain Fog
41 °F
Feels Like 38 °F
N
5
Wind Variable Wind from NE

Today
High -- | Low -- °F
--% Chance of Precip.
Yesterday
High -- | Low -- °F
Precip. -- in
8:25 AM 4:58 PM
Waning Crescent, 10% visible
Pressure 29.47 in
Visibility 0.2 miles
Clouds Overcast 200 ft
Windchill 38 °F
Dew Point 41 °F
Humidity 100%
Rainfall 0.00 in
Snow Depth Not available.
UV 0 out of 12
Pollen Not available.
Air Quality Not available.
Flu Activity Not available.
METAR LFVP 190254Z 04004KT 010V090 0400 R26/1300U -RA FG OVC002 05/05 Q0998 NOSIG

More Conditions Fewer Conditions

Pressure 29.47 in
Visibility 0.2 miles
Clouds Overcast 200 ft
Windchill 38 °F
Dew Point 41 °F
Humidity 100%
Rainfall 0.00 in
Snow Depth Not available.
UV 0 out of 12
Pollen Not available.
Air Quality Not available.
Flu Activity Not available.
METAR LFVP 190254Z 04004KT 010V090 0400 R26/1300U -RA FG OVC002 05/05 Q0998 NOSIG

More Conditions Fewer Conditions

10-Day Weather Forecast

Almanac

Astronomy

Dec. 19, 2014 Rise Set
Actual Time
Civil Twilight
Nautical Twilight
Astronomical Twilight
Moon
Length of Visible Light
Length of Day
Tomorrow will be .
, % of the Moon is Illuminated

Today's Extremes

Country Highs Country Lows

Community

WunderPhotos

Upload Photos

1,778,994 photos uploaded!

WunderBlogs® & News

Nearby

Air Quality

  Air Quality AQ Index Pollutant
Not available.

Snow Depth

Station Depth Elevation

Earthquake Activity

City Distance Mag. Time & Date
Minimum magnitude displayed is 2.5.

Coastal Water Temperatures

Place Temperature

Nearby Weather Stations